createdAt,value
2022-10-28T00:01:17.387Z,102133.31
2022-10-28T00:03:47.511Z,102135.53
2022-10-28T00:06:18.145Z,102139.88
2022-10-28T00:08:45.794Z,102148.94
2022-10-28T00:11:19.727Z,102146.97
2022-10-28T00:13:48.002Z,102151.84
2022-10-28T00:16:21.623Z,102140.69
2022-10-28T00:18:52.492Z,102145.03
2022-10-28T00:21:26.606Z,102144.75
2022-10-28T00:23:54.309Z,102144.25
2022-10-28T00:26:24.731Z,102144.41
2022-10-28T00:29:00.931Z,102141.03
2022-10-28T00:31:29.812Z,102147.13
2022-10-28T00:33:59.022Z,102145.34
2022-10-28T00:36:35.700Z,102146.16
2022-10-28T00:39:09.803Z,102142.88
2022-10-28T00:41:39.033Z,102139.97
2022-10-28T00:44:36.963Z,102130.66
2022-10-28T00:47:06.031Z,102137.41
2022-10-28T00:49:34.628Z,102133.22
2022-10-28T00:52:07.996Z,102136.28
2022-10-28T00:54:37.840Z,102133.38
2022-10-28T00:57:10.006Z,102129.16
2022-10-28T00:59:42.258Z,102116.53
2022-10-28T01:02:09.886Z,102123.78
2022-10-28T01:04:38.007Z,102122.34
2022-10-28T01:07:06.475Z,102113.16
2022-10-28T01:09:33.799Z,102111.50
2022-10-28T01:12:34.641Z,102109.22
2022-10-28T01:15:16.490Z,102103.75
2022-10-28T01:18:02.573Z,102103.16
2022-10-28T01:20:41.016Z,102101.66
2022-10-28T01:23:28.145Z,102104.41
2022-10-28T01:26:29.334Z,102095.78
2022-10-28T01:29:15.241Z,102096.75
2022-10-28T01:31:50.174Z,102096.75
2022-10-28T01:34:41.106Z,102090.28
2022-10-28T01:37:43.258Z,102088.47
2022-10-28T01:40:21.611Z,102079.44
2022-10-28T01:43:03.755Z,102074.59
2022-10-28T01:45:40.755Z,102073.56
2022-10-28T01:48:14.164Z,102087.97
2022-10-28T01:50:56.004Z,102079.63
2022-10-28T01:53:31.040Z,102085.94
2022-10-28T01:56:03.844Z,102086.13
2022-10-28T01:58:33.416Z,102082.72
2022-10-28T02:01:09.326Z,102082.34
2022-10-28T02:03:37.165Z,102094.72
2022-10-28T02:06:15.066Z,102085.66
2022-10-28T02:09:07.217Z,102088.97
2022-10-28T02:11:40.889Z,102090.72
2022-10-28T02:14:39.555Z,102105.44
2022-10-28T02:17:43.837Z,102109.78
2022-10-28T02:20:37.210Z,102100.28
2022-10-28T02:23:10.641Z,102102.72
2022-10-28T02:26:01.196Z,102104.91
2022-10-28T02:28:41.348Z,102100.25
2022-10-28T02:31:23.911Z,102107.47
2022-10-28T02:34:00.148Z,102101.19
2022-10-28T02:36:30.827Z,102109.88
2022-10-28T02:38:59.155Z,102101.31
2022-10-28T02:42:02.772Z,102107.84
2022-10-28T02:44:35.263Z,102113.81
2022-10-28T02:47:08.171Z,102106.13
2022-10-28T02:49:38.996Z,102110.03
2022-10-28T02:52:07.345Z,102104.38
2022-10-28T02:54:40.812Z,102108.50
2022-10-28T02:57:12.657Z,102103.38
2022-10-28T02:59:40.682Z,102105.41
2022-10-28T03:02:09.924Z,102120.97
2022-10-28T03:04:37.677Z,102110.47
2022-10-28T03:07:04.979Z,102110.16
2022-10-28T03:09:32.323Z,102108.16
2022-10-28T03:11:59.635Z,102108.16
2022-10-28T03:14:26.974Z,102109.78
2022-10-28T03:16:54.292Z,102107.53
2022-10-28T03:19:21.643Z,102109.97
2022-10-28T03:21:48.967Z,102101.56
2022-10-28T03:24:16.368Z,102102.38
2022-10-28T03:26:43.904Z,102097.34
2022-10-28T03:29:11.244Z,102099.69
2022-10-28T03:31:38.559Z,102100.03
2022-10-28T03:34:05.906Z,102098.66
2022-10-28T03:36:33.247Z,102099.97
2022-10-28T03:39:00.695Z,102093.69
2022-10-28T03:41:28.061Z,102090.94
2022-10-28T03:43:55.554Z,102088.38
2022-10-28T03:46:22.883Z,102087.31
2022-10-28T03:48:50.319Z,102088.19
2022-10-28T03:51:17.897Z,102083.38
2022-10-28T03:53:45.274Z,102075.81
2022-10-28T03:56:12.780Z,102075.69
2022-10-28T03:58:41.215Z,102082.19
2022-10-28T04:01:09.039Z,102083.13
2022-10-28T04:03:36.543Z,102084.44
2022-10-28T04:06:06.625Z,102080.19
2022-10-28T04:08:33.985Z,102078.56
2022-10-28T04:11:01.376Z,102085.22
2022-10-28T04:13:28.704Z,102084.09
2022-10-28T04:15:56.674Z,102086.53
2022-10-28T04:18:24.088Z,102095.56
2022-10-28T04:20:51.507Z,102093.31
2022-10-28T04:23:19.295Z,102097.03
2022-10-28T04:25:46.682Z,102097.84
2022-10-28T04:28:14.287Z,102104.94
2022-10-28T04:30:41.597Z,102101.59
2022-10-28T04:33:12.373Z,102095.38
2022-10-28T04:35:42.804Z,102099.16
2022-10-28T04:38:11.281Z,102089.16
2022-10-28T04:40:38.658Z,102090.69
2022-10-28T04:43:08.512Z,102088.28
2022-10-28T04:45:38.044Z,102086.03
2022-10-28T04:48:05.535Z,102083.13
2022-10-28T04:50:32.912Z,102080.88
2022-10-28T04:53:02.270Z,102076.63
2022-10-28T04:55:29.603Z,102086.13
2022-10-28T04:57:59.167Z,102083.66
2022-10-28T05:00:28.969Z,102081.34
2022-10-28T05:02:57.156Z,102080.84
2022-10-28T05:05:25.796Z,102081.66
2022-10-28T05:07:53.408Z,102079.63
2022-10-28T05:10:20.882Z,102078.13
2022-10-28T05:12:48.707Z,102080.25
2022-10-28T05:15:16.179Z,102075.78
2022-10-28T05:17:44.822Z,102081.50
2022-10-28T05:20:14.539Z,102074.09
2022-10-28T05:22:53.731Z,102082.13
2022-10-28T05:25:22.509Z,102082.13
2022-10-28T05:27:50.219Z,102084.13
2022-10-28T05:30:20.228Z,102080.25
2022-10-28T05:32:49.317Z,102074.50
2022-10-28T05:35:18.978Z,102074.50
2022-10-28T05:37:46.463Z,102070.84
2022-10-28T05:40:13.738Z,102081.25
2022-10-28T05:42:42.626Z,102078.03
2022-10-28T05:45:11.171Z,102085.00
2022-10-28T05:47:45.948Z,102085.69
2022-10-28T05:50:15.422Z,102082.84
2022-10-28T05:52:50.010Z,102084.44
2022-10-28T05:55:21.947Z,102083.25
2022-10-28T05:57:53.234Z,102088.75
2022-10-28T06:00:24.156Z,102082.88
2022-10-28T06:02:51.811Z,102086.28
2022-10-28T06:05:19.584Z,102080.06
2022-10-28T06:07:46.957Z,102082.31
2022-10-28T06:10:14.341Z,102089.03
2022-10-28T06:12:40.175Z,102087.59
2022-10-28T06:15:07.946Z,102087.09
2022-10-28T06:17:35.358Z,102091.63
2022-10-28T06:20:06.133Z,102097.00
2022-10-28T06:22:33.532Z,102099.41
2022-10-28T06:25:01.165Z,102105.88
2022-10-28T06:27:28.474Z,102098.22
2022-10-28T06:29:56.055Z,102107.75
2022-10-28T06:32:23.367Z,102107.44
2022-10-28T06:34:50.693Z,102107.09
2022-10-28T06:37:17.961Z,102107.63
2022-10-28T06:39:49.753Z,102107.66
2022-10-28T06:42:17.747Z,102107.41
2022-10-28T06:44:45.110Z,102113.66
2022-10-28T06:47:14.527Z,102127.28
2022-10-28T06:49:41.919Z,102121.28
2022-10-28T06:52:10.867Z,102122.13
2022-10-28T06:54:39.376Z,102120.91
2022-10-28T06:57:09.296Z,102134.47
2022-10-28T06:59:36.894Z,102129.97
2022-10-28T07:02:04.705Z,102127.41
2022-10-28T07:04:33.790Z,102128.22
2022-10-28T07:07:01.165Z,102127.28
2022-10-28T07:09:28.534Z,102128.31
2022-10-28T07:11:57.039Z,102126.34
2022-10-28T07:14:26.107Z,102131.03
2022-10-28T07:16:53.406Z,102138.16
2022-10-28T07:19:22.729Z,102132.19
2022-10-28T07:21:50.137Z,102148.47
2022-10-28T07:24:17.679Z,102151.88
2022-10-28T07:26:48.763Z,102149.94
2022-10-28T07:29:16.598Z,102148.47
2022-10-28T07:31:43.911Z,102152.44
2022-10-28T07:34:11.366Z,102152.09
2022-10-28T07:36:38.805Z,102151.09
2022-10-28T07:39:06.148Z,102144.22
2022-10-28T07:41:33.506Z,102140.81
2022-10-28T07:44:00.902Z,102144.03
2022-10-28T07:46:28.199Z,102131.47
2022-10-28T07:48:55.608Z,102144.34
2022-10-28T07:51:22.883Z,102146.16
2022-10-28T07:53:50.178Z,102143.78
2022-10-28T07:56:17.625Z,102153.28
2022-10-28T07:58:45.450Z,102152.97
2022-10-28T08:01:16.485Z,102148.69
2022-10-28T08:03:44.691Z,102149.50
2022-10-28T08:06:18.111Z,102135.69
2022-10-28T08:08:47.757Z,102136.16
2022-10-28T08:11:20.551Z,102141.22
2022-10-28T08:13:48.496Z,102144.16
2022-10-28T08:16:16.498Z,102137.38
2022-10-28T08:18:46.550Z,102141.84
2022-10-28T08:21:15.084Z,102142.25
2022-10-28T08:23:46.543Z,102133.81
2022-10-28T08:26:16.626Z,102136.69
2022-10-28T08:28:44.064Z,102139.16
2022-10-28T08:31:12.481Z,102141.94
2022-10-28T08:33:44.368Z,102139.16
2022-10-28T08:36:14.545Z,102137.97
2022-10-28T08:38:48.048Z,102128.63
2022-10-28T08:41:43.439Z,102133.03
2022-10-28T08:44:32.176Z,102134.22
2022-10-28T08:47:08.498Z,102129.78
2022-10-28T08:49:42.447Z,102134.28
2022-10-28T08:52:37.495Z,102133.44
2022-10-28T08:55:07.720Z,102126.56
2022-10-28T08:57:41.108Z,102125.50
2022-10-28T09:00:21.942Z,102134.97
2022-10-28T09:03:14.526Z,102136.75
2022-10-28T09:05:45.685Z,102135.75
2022-10-28T09:08:22.591Z,102137.38
2022-10-28T09:11:11.857Z,102128.81
2022-10-28T09:14:12.896Z,102133.72
2022-10-28T09:17:04.993Z,102136.63
2022-10-28T09:19:38.593Z,102130.56
2022-10-28T09:22:21.588Z,102125.19
2022-10-28T09:24:59.909Z,102125.19
2022-10-28T09:28:14.819Z,102136.16
2022-10-28T09:31:05.283Z,102144.69
2022-10-28T09:33:35.469Z,102136.09
2022-10-28T09:36:13.021Z,102145.59
2022-10-28T09:38:40.977Z,102137.94
2022-10-28T09:41:36.373Z,102139.41
2022-10-28T09:44:28.880Z,102134.78
2022-10-28T09:47:00.698Z,102138.03
2022-10-28T09:49:31.251Z,102136.47
2022-10-28T09:52:12.821Z,102144.16
2022-10-28T09:54:48.567Z,102126.97
2022-10-28T09:57:17.398Z,102128.09
2022-10-28T09:59:45.692Z,102137.28
2022-10-28T10:02:35.839Z,102136.22
2022-10-28T10:05:03.872Z,102135.44
2022-10-28T10:07:41.428Z,102134.63
2022-10-28T10:10:20.000Z,102134.84
2022-10-28T10:12:52.476Z,102136.28
2022-10-28T10:15:28.793Z,102134.19
2022-10-28T10:18:05.056Z,102126.34
2022-10-28T10:20:55.888Z,102131.03
2022-10-28T10:23:33.504Z,102126.78
2022-10-28T10:26:09.503Z,102118.63
2022-10-28T10:28:50.882Z,102112.34
2022-10-28T10:31:21.037Z,102112.00
2022-10-28T10:33:57.390Z,102104.97
2022-10-28T10:36:33.147Z,102112.41
2022-10-28T10:39:03.026Z,102109.41
2022-10-28T10:41:37.423Z,102111.38
2022-10-28T10:44:23.117Z,102110.25
2022-10-28T10:47:10.696Z,102109.47
2022-10-28T10:49:37.997Z,102110.34
2022-10-28T10:52:18.612Z,102108.97
2022-10-28T10:55:01.252Z,102114.47
2022-10-28T10:57:31.695Z,102105.09
2022-10-28T10:59:59.479Z,102093.69
2022-10-28T11:02:32.494Z,102097.63
2022-10-28T11:05:03.958Z,102083.59
2022-10-28T11:07:32.878Z,102077.34
2022-10-28T11:10:01.889Z,102082.41
2022-10-28T11:12:32.139Z,102080.63
2022-10-28T11:15:05.229Z,102079.66
2022-10-28T11:17:34.618Z,102082.44
2022-10-28T11:20:32.694Z,102076.88
2022-10-28T11:23:23.397Z,102070.69
2022-10-28T11:25:54.403Z,102070.56
2022-10-28T11:28:51.006Z,102067.38
2022-10-28T11:31:21.256Z,102065.25
2022-10-28T11:34:07.096Z,102054.56
2022-10-28T11:36:43.355Z,102055.03
2022-10-28T11:39:22.561Z,102044.47
2022-10-28T11:42:07.323Z,102052.41
2022-10-28T11:44:56.469Z,102045.22
2022-10-28T11:47:46.999Z,102045.41
2022-10-28T11:50:32.136Z,102046.59
2022-10-28T11:53:37.200Z,102038.75
2022-10-28T11:56:41.412Z,102031.78
2022-10-28T11:59:33.089Z,102034.97
2022-10-28T12:02:24.897Z,102024.31
2022-10-28T12:05:11.441Z,102036.81
2022-10-28T12:08:08.998Z,102027.28
2022-10-28T12:10:48.321Z,102026.59
2022-10-28T12:13:58.640Z,102021.06
2022-10-28T12:16:41.040Z,102023.94
2022-10-28T12:19:23.040Z,102004.16
2022-10-28T12:22:05.894Z,102003.66
2022-10-28T12:24:37.589Z,102003.31
2022-10-28T12:27:18.173Z,101992.19
2022-10-28T12:29:51.394Z,101993.72
2022-10-28T12:32:26.288Z,101990.41
2022-10-28T12:35:02.941Z,101987.13
2022-10-28T12:37:48.538Z,101982.25
2022-10-28T12:40:24.095Z,101981.81
2022-10-28T12:43:01.862Z,101979.44
2022-10-28T12:45:31.379Z,101972.28
2022-10-28T12:48:06.676Z,101967.16
2022-10-28T12:50:47.648Z,101969.94
2022-10-28T12:53:39.552Z,101971.03
2022-10-28T12:56:14.067Z,101966.31
2022-10-28T12:58:44.441Z,101964.72
2022-10-28T13:01:19.374Z,101961.16
2022-10-28T13:03:50.397Z,101960.34
2022-10-28T13:06:30.014Z,101959.56
2022-10-28T13:09:03.538Z,101964.38
2022-10-28T13:11:35.016Z,101961.56
2022-10-28T13:14:25.182Z,101955.56
2022-10-28T13:17:36.754Z,101957.59
2022-10-28T13:20:18.262Z,101951.25
2022-10-28T13:23:17.360Z,101948.19
2022-10-28T13:25:47.302Z,101946.16
2022-10-28T13:28:18.146Z,101940.56
2022-10-28T13:31:00.533Z,101949.69
2022-10-28T13:33:29.916Z,101942.19
2022-10-28T13:36:17.559Z,101939.28
2022-10-28T13:39:24.948Z,101947.97
2022-10-28T13:42:16.044Z,101941.97
2022-10-28T13:44:49.152Z,101946.25
2022-10-28T13:47:16.476Z,101946.16
2022-10-28T13:50:02.309Z,101954.47
2022-10-28T13:52:29.744Z,101954.34
2022-10-28T13:55:01.982Z,101951.84
2022-10-28T13:57:36.678Z,101946.28
2022-10-28T14:00:06.153Z,101944.47
2022-10-28T14:02:47.848Z,101943.47
2022-10-28T14:05:17.606Z,101948.13
2022-10-28T14:07:55.664Z,101936.81
2022-10-28T14:10:30.597Z,101938.66
2022-10-28T14:13:02.380Z,101939.97
2022-10-28T14:15:37.190Z,101938.41
2022-10-28T14:21:08.028Z,101947.31
2022-10-28T14:23:36.559Z,101946.56
2022-10-28T14:26:07.388Z,101939.06
2022-10-28T14:28:34.664Z,101949.31
2022-10-28T14:31:07.886Z,101945.69
2022-10-28T14:33:56.478Z,101934.41
2022-10-28T14:36:49.885Z,101950.69
2022-10-28T14:39:23.548Z,101944.00
2022-10-28T14:42:12.307Z,101951.91
2022-10-28T14:45:02.505Z,101943.47
2022-10-28T14:48:07.812Z,101948.50
2022-10-28T14:50:43.165Z,101949.63
2022-10-28T14:53:20.115Z,101954.50
2022-10-28T14:55:56.070Z,101949.25
2022-10-28T14:58:28.333Z,101949.63
2022-10-28T15:00:58.498Z,101951.59
2022-10-28T15:03:26.573Z,101956.59
2022-10-28T15:05:53.904Z,101949.63
2022-10-28T15:08:21.357Z,101948.41
2022-10-28T15:10:49.727Z,101951.03
2022-10-28T15:13:19.017Z,101943.53
2022-10-28T15:15:54.564Z,101945.09
2022-10-28T15:18:24.978Z,101942.25
2022-10-28T15:21:15.345Z,101937.94
2022-10-28T15:23:46.144Z,101940.59
2022-10-28T15:26:16.305Z,101945.72
2022-10-28T15:28:43.779Z,101945.34
2022-10-28T15:31:11.152Z,101943.19
2022-10-28T15:33:40.853Z,101944.38
2022-10-28T15:36:24.686Z,101942.72
2022-10-28T15:39:07.318Z,101940.63
2022-10-28T15:41:43.749Z,101946.88
2022-10-28T15:44:38.648Z,101948.34
2022-10-28T15:47:26.125Z,101953.03
2022-10-28T15:50:14.956Z,101952.22
2022-10-28T15:52:51.245Z,101952.84
2022-10-28T15:55:18.589Z,101948.47
2022-10-28T15:57:49.945Z,101952.28
2022-10-28T16:00:24.385Z,101949.38
2022-10-28T16:02:53.608Z,101954.06
2022-10-28T16:05:34.037Z,101944.38
2022-10-28T16:08:02.585Z,101940.59
2022-10-28T16:10:42.805Z,101946.88
2022-10-28T16:13:19.269Z,101943.84
2022-10-28T16:16:00.633Z,101946.69
2022-10-28T16:18:31.561Z,101946.41
2022-10-28T16:21:00.377Z,101951.25
2022-10-28T16:23:35.109Z,101947.16
2022-10-28T16:26:02.572Z,101954.56
2022-10-28T16:28:31.634Z,101951.22
2022-10-28T16:31:01.017Z,101961.78
2022-10-28T16:33:32.039Z,101961.41
2022-10-28T16:36:00.835Z,101960.00
2022-10-28T16:38:30.980Z,101966.47
2022-10-28T16:41:00.808Z,101965.06
2022-10-28T16:43:29.753Z,101969.69
2022-10-28T16:46:00.770Z,101969.63
2022-10-28T16:48:30.504Z,101977.97
2022-10-28T16:51:06.473Z,101975.81
2022-10-28T16:53:34.124Z,101976.63
2022-10-28T16:56:01.448Z,101982.69
2022-10-28T16:58:29.422Z,101983.91
2022-10-28T17:00:56.985Z,101986.34
2022-10-28T17:03:24.359Z,101987.84
2022-10-28T17:05:52.509Z,101988.81
2022-10-28T17:08:36.218Z,101989.00
2022-10-28T17:11:07.276Z,101985.97
2022-10-28T17:13:34.723Z,101989.38
2022-10-28T17:16:02.107Z,101992.13
2022-10-28T17:18:29.461Z,101990.41
2022-10-28T17:21:01.254Z,101992.00
2022-10-28T17:23:29.669Z,101989.59
2022-10-28T17:26:01.175Z,101996.09
2022-10-28T17:28:28.888Z,101982.53
2022-10-28T17:31:07.509Z,101997.44
2022-10-28T17:33:35.831Z,101989.28
2022-10-28T17:36:05.365Z,101992.28
2022-10-28T17:38:32.765Z,101989.09
2022-10-28T17:41:00.157Z,101992.41
2022-10-28T17:43:27.822Z,101996.19
2022-10-28T17:46:05.395Z,101999.31
2022-10-28T17:48:33.065Z,101990.78
2022-10-28T17:51:00.666Z,101992.16
2022-10-28T17:53:28.151Z,101995.84
2022-10-28T17:56:17.105Z,102006.84
2022-10-28T17:58:44.453Z,102013.31
2022-10-28T18:01:12.493Z,102010.41
2022-10-28T18:03:39.976Z,102014.22
2022-10-28T18:06:13.348Z,102011.56
2022-10-28T18:08:42.774Z,102012.81
2022-10-28T18:11:13.248Z,102016.81
2022-10-28T18:13:45.068Z,102020.25
2022-10-28T18:16:24.259Z,102025.72
2022-10-28T18:18:51.698Z,102021.09
2022-10-28T18:21:19.168Z,102015.16
2022-10-28T18:23:52.377Z,102018.34
2022-10-28T18:26:20.409Z,102016.88
2022-10-28T18:28:48.905Z,102020.66
2022-10-28T18:31:18.612Z,102021.81
2022-10-28T18:33:47.039Z,102024.88
2022-10-28T18:36:17.796Z,102029.47
